Hovedside
METAR-TAF:

METAR-TAF

Lufthavner :

Yap, Mikronesia

breddegrad: 09-29N, lengdegrad: 138-05E, høyde over havet: 28 m

Gjeldene værobservasjon

Denne rapporten ble laget for 6 minutter siden, klokken 06:54 UTC
Vind 8 kt fra Nordøst
Temperatur 31°C
Luftfuktighet 71%
Trykk 1006 hPa
Sikt: 19.3 km
Få skyer i en høyde av 1600 ft, Tårnskyer (cumulus).
Spredte skyer i en høyde av 30000 ft

METAR: PTYA 250654Z 05008KT 12SM FEW016TCU SCT300 31/25 A2971 RMK TCU SW SLP062 T03100246

Tid: 17:00 (07:00 UTC)

Varsel

Denne rapporten ble laget for 1 time og 33 minutter siden, klokken 05:27 UTC
Varsel gyldig fra 25. klokken 06 UTC til 26. klokken 06 UTC
Vind 7 kt fra Øst-nordøst
Sikt: 10 km
Spredte skyer i en høyde av 1600 ft

TAF: PTYA 250527Z 2506/2606 07007KT P6SM SCT016

Værobservasjoner og værvarsel for over 4000 flyplasser (METAR- og TAF-rapporter).

Tilgjengelige stasjoner er representert av de røde og gule prikkene på kartet.

Hold musepekeren over prikken for å se navnet på stasjonen.

Klikk så for å se værobservasjoner og -varsler.

For å forandre kartet kan du klikke på den grønne knappen med svart kryss for å zoome inn, på den grønne knappen med strek for å zoome ut, eller på de grønne pilene for å se tilstøtende kart.


METAR-TAF: